Pistol River, Oregon
Current Conditions -  °F | °C
As of 12:56 PM on Friday 19 Dec 2014 (Local Time) from KBOK Reporting Station
Haze Haze  
Wind Chill: 12°   Ceiling: 1800
Heat Index: 12°   Visibility: 5mi
Dew Point: 12°   Wind: 6mph
Humidity: 100%   Direction: NA
Pressure: 30.07"   Gusts: NA
Location:  42.5771°N, 124.359°W
Report Text: KBOK 192056Z AUTO VRB05KT 5SM BR FEW008 OVC018 12/12 A3007 RMK AO2 51004 60000 T01220122 OVC V BKN SLP186
Loading
Personal Weather Stations






























Interactive Weather Map New forecast layout! Learn more

10-Day Weather Forecast

Advertisements
Track Severe Weather on mobile